createdAt,value
2018-04-13T00:00:44.560Z,1000.59
2018-04-13T00:01:44.584Z,1000.53
2018-04-13T00:02:44.608Z,1000.58
2018-04-13T00:03:44.637Z,1000.6
2018-04-13T00:04:44.653Z,1000.56
2018-04-13T00:05:44.677Z,1000.58
2018-04-13T00:06:44.703Z,1000.58
2018-04-13T00:07:44.724Z,1000.61
2018-04-13T00:08:44.747Z,1000.59
2018-04-13T00:10:44.794Z,1000.63
2018-04-13T00:11:44.815Z,1000.55
2018-04-13T00:12:44.840Z,1000.56
2018-04-13T00:13:44.862Z,1000.58
2018-04-13T00:14:44.886Z,1000.55
2018-04-13T00:15:44.908Z,1000.55
2018-04-13T00:16:44.931Z,1000.59
2018-04-13T00:17:44.957Z,1000.54
2018-04-13T00:18:44.977Z,1000.53
2018-04-13T00:19:45.000Z,1000.5
2018-04-13T00:20:45.024Z,1000.52
2018-04-13T00:21:45.048Z,1000.54
2018-04-13T00:22:45.070Z,1000.57
2018-04-13T00:23:45.093Z,1000.54
2018-04-13T00:24:45.117Z,1000.53
2018-04-13T00:25:45.141Z,1000.53
2018-04-13T00:26:45.162Z,1000.54
2018-04-13T00:27:45.186Z,1000.51
2018-04-13T00:28:45.209Z,1000.5
2018-04-13T00:29:45.232Z,1000.47
2018-04-13T00:30:45.258Z,1000.47
2018-04-13T00:31:45.278Z,1000.49
2018-04-13T00:32:45.302Z,1000.45
2018-04-13T00:33:45.324Z,1000.48
2018-04-13T00:34:45.348Z,1000.5
2018-04-13T00:35:45.370Z,1000.54
2018-04-13T00:36:45.394Z,1000.48
2018-04-13T00:37:45.416Z,1000.47
2018-04-13T00:38:45.438Z,1000.46
2018-04-13T00:39:45.463Z,1000.46
2018-04-13T00:40:45.489Z,1000.43
2018-04-13T00:42:45.531Z,1000.46
2018-04-13T00:43:45.555Z,1000.47
2018-04-13T00:44:45.576Z,1000.48
2018-04-13T00:45:45.600Z,1000.39
2018-04-13T00:46:45.623Z,1000.42
2018-04-13T00:47:45.647Z,1000.42
2018-04-13T00:48:45.669Z,1000.36
2018-04-13T00:49:45.693Z,1000.39
2018-04-13T00:50:45.717Z,1000.39
2018-04-13T00:51:45.738Z,1000.36
2018-04-13T00:52:45.761Z,1000.42
2018-04-13T00:53:45.784Z,1000.4
2018-04-13T00:54:45.808Z,1000.41
2018-04-13T00:55:45.832Z,1000.44
2018-04-13T00:56:45.854Z,1000.38
2018-04-13T00:58:45.901Z,1000.36
2018-04-13T00:59:45.921Z,1000.41
2018-04-13T01:00:45.945Z,1000.39
2018-04-13T01:01:45.967Z,1000.39
2018-04-13T01:02:45.991Z,1000.38
2018-04-13T01:03:46.013Z,1000.37
2018-04-13T01:04:46.036Z,1000.43
2018-04-13T01:05:46.059Z,1000.48
2018-04-13T01:06:46.081Z,1000.37
2018-04-13T01:07:46.105Z,1000.31
2018-04-13T01:08:46.195Z,1000.35
2018-04-13T01:09:46.151Z,1000.32
2018-04-13T01:10:46.174Z,1000.31
2018-04-13T01:11:46.200Z,1000.43
2018-04-13T01:12:46.220Z,1000.34
2018-04-13T01:14:46.265Z,1000.35
2018-04-13T01:15:46.289Z,1000.31
2018-04-13T01:16:46.312Z,1000.32
2018-04-13T01:17:46.334Z,1000.35
2018-04-13T01:18:46.357Z,1000.33
2018-04-13T01:19:46.385Z,1000.27
2018-04-13T01:20:46.404Z,1000.36
2018-04-13T01:21:46.426Z,1000.34
2018-04-13T01:22:46.449Z,1000.37
2018-04-13T01:23:46.472Z,1000.31
2018-04-13T01:24:46.494Z,1000.3
2018-04-13T01:25:46.520Z,1000.31
2018-04-13T01:26:46.541Z,1000.31
2018-04-13T01:27:46.564Z,1000.26
2018-04-13T01:28:46.587Z,1000.27
2018-04-13T01:30:46.633Z,1000.27
2018-04-13T01:31:46.656Z,1000.26
2018-04-13T01:32:46.679Z,1000.24
2018-04-13T01:33:46.701Z,1000.23
2018-04-13T01:34:46.729Z,1000.26
2018-04-13T01:35:46.748Z,1000.28
2018-04-13T01:36:46.770Z,1000.24
2018-04-13T01:37:46.794Z,1000.27
2018-04-13T01:38:46.817Z,1000.28
2018-04-13T01:39:46.839Z,1000.22
2018-04-13T01:40:46.863Z,1000.27
2018-04-13T01:41:46.887Z,1000.27
2018-04-13T01:42:46.910Z,1000.27
2018-04-13T01:43:46.932Z,1000.31
2018-04-13T01:45:46.979Z,1000.28
2018-04-13T01:46:47.002Z,1000.24
2018-04-13T01:47:47.025Z,1000.25
2018-04-13T01:48:47.048Z,1000.29
2018-04-13T01:49:47.071Z,1000.29
2018-04-13T01:50:47.139Z,1000.27
2018-04-13T01:51:47.116Z,1000.24
2018-04-13T01:52:47.139Z,1000.19
2018-04-13T01:53:47.162Z,1000.23
2018-04-13T01:54:47.186Z,1000.23
2018-04-13T01:55:47.207Z,1000.23
2018-04-13T01:56:47.232Z,1000.19
2018-04-13T01:57:47.255Z,1000.2
2018-04-13T01:58:47.277Z,1000.2
2018-04-13T01:59:47.300Z,1000.26
2018-04-13T02:00:47.424Z,1000.16
2018-04-13T02:01:47.346Z,1000.15
2018-04-13T02:02:47.369Z,1000.15
2018-04-13T02:03:47.393Z,1000.1
2018-04-13T02:04:47.416Z,1000.14
2018-04-13T02:05:47.437Z,1000.08
2018-04-13T02:06:47.461Z,1000.08
2018-04-13T02:07:47.484Z,1000.09
2018-04-13T02:08:47.506Z,1000.08
2018-04-13T02:09:47.532Z,1000.06
2018-04-13T02:10:47.552Z,1000.12
2018-04-13T02:11:47.576Z,1000.04
2018-04-13T02:12:47.598Z,1000.08
2018-04-13T02:13:47.621Z,1000.07
2018-04-13T02:14:47.644Z,1000.03
2018-04-13T02:15:47.666Z,1000.08
2018-04-13T02:17:47.713Z,1000.09
2018-04-13T02:18:47.737Z,1000.14
2018-04-13T02:19:47.758Z,1000.14
2018-04-13T02:20:47.781Z,1000.12
2018-04-13T02:21:47.804Z,1000.11
2018-04-13T02:22:47.827Z,1000.12
2018-04-13T02:23:47.854Z,1000.13
2018-04-13T02:24:47.872Z,1000.15
2018-04-13T02:25:47.895Z,1000.23
2018-04-13T02:26:47.919Z,1000.14
2018-04-13T02:27:47.945Z,1000.1
2018-04-13T02:28:47.964Z,1000.11
2018-04-13T02:29:47.991Z,1000.19
2018-04-13T02:30:48.016Z,1000.1
2018-04-13T02:31:48.032Z,1000.12
2018-04-13T02:33:48.079Z,1000.11
2018-04-13T02:34:48.101Z,1000.11
2018-04-13T02:35:48.123Z,1000.04
2018-04-13T02:36:48.147Z,1000.14
2018-04-13T02:37:48.169Z,1000.11
2018-04-13T02:38:48.193Z,1000.09
2018-04-13T02:39:48.215Z,1000.1
2018-04-13T02:40:48.240Z,1000.05
2018-04-13T02:41:48.261Z,1000.1
2018-04-13T02:42:48.284Z,1000.12
2018-04-13T02:43:48.308Z,1000.12
2018-04-13T02:44:48.329Z,1000.14
2018-04-13T02:45:48.352Z,1000.13
2018-04-13T02:46:48.376Z,1000.19
2018-04-13T02:47:48.399Z,1000.14
2018-04-13T02:49:48.443Z,1000.24
2018-04-13T02:50:48.466Z,1000.26
2018-04-13T02:51:48.489Z,1000.22
2018-04-13T02:52:48.512Z,1000.27
2018-04-13T02:53:48.533Z,1000.25
2018-04-13T02:54:48.556Z,1000.29
2018-04-13T02:55:48.580Z,1000.31
2018-04-13T02:56:48.602Z,1000.35
2018-04-13T02:57:48.625Z,1000.36
2018-04-13T02:58:48.647Z,1000.36
2018-04-13T02:59:48.669Z,1000.33
2018-04-13T03:00:48.697Z,1000.31
2018-04-13T03:01:48.715Z,1000.35
2018-04-13T03:02:48.738Z,1000.35
2018-04-13T03:03:48.761Z,1000.39
2018-04-13T03:05:48.805Z,1000.38
2018-04-13T03:06:48.829Z,1000.34
2018-04-13T03:07:48.850Z,1000.3
2018-04-13T03:08:48.874Z,1000.31
2018-04-13T03:09:48.898Z,1000.27
2018-04-13T03:10:48.920Z,1000.3
2018-04-13T03:11:48.946Z,1000.28
2018-04-13T03:12:48.966Z,1000.31
2018-04-13T03:13:48.989Z,1000.28
2018-04-13T03:14:49.011Z,1000.25
2018-04-13T03:15:49.035Z,1000.32
2018-04-13T03:16:49.057Z,1000.35
2018-04-13T03:17:49.080Z,1000.31
2018-04-13T03:18:49.134Z,1000.3
2018-04-13T03:20:49.149Z,1000.32
2018-04-13T03:21:49.171Z,1000.35
2018-04-13T03:22:49.196Z,1000.28
2018-04-13T03:23:49.217Z,1000.42
2018-04-13T03:24:49.243Z,1000.36
2018-04-13T03:25:49.364Z,1000.42
2018-04-13T03:26:49.285Z,1000.45
2018-04-13T03:27:49.308Z,1000.36
2018-04-13T03:28:49.330Z,1000.37
2018-04-13T03:29:49.356Z,1000.4
2018-04-13T03:30:49.376Z,1000.36
2018-04-13T03:31:49.400Z,1000.33
2018-04-13T03:32:49.420Z,1000.37
2018-04-13T03:33:49.444Z,1000.38
2018-04-13T03:34:49.466Z,1000.4
2018-04-13T03:35:49.490Z,1000.36
2018-04-13T03:36:49.516Z,1000.4
2018-04-13T03:37:49.535Z,1000.41
2018-04-13T03:38:49.557Z,1000.4
2018-04-13T03:39:49.578Z,1000.4
2018-04-13T03:40:49.606Z,1000.44
2018-04-13T03:41:49.628Z,1000.44
2018-04-13T03:42:49.647Z,1000.37
2018-04-13T03:43:49.670Z,1000.39
2018-04-13T03:44:49.693Z,1000.45
2018-04-13T03:45:49.720Z,1000.48
2018-04-13T03:46:49.739Z,1000.48
2018-04-13T03:47:49.762Z,1000.53
2018-04-13T03:48:49.785Z,1000.59
2018-04-13T03:49:49.808Z,1000.58
2018-04-13T03:50:49.830Z,1000.6
2018-04-13T03:52:49.875Z,1000.57
2018-04-13T03:53:49.899Z,1000.54
2018-04-13T03:54:49.920Z,1000.6
2018-04-13T03:55:49.943Z,1000.6
2018-04-13T03:56:49.966Z,1000.63
2018-04-13T03:57:49.988Z,1000.6
2018-04-13T03:58:50.012Z,1000.57
2018-04-13T03:59:50.033Z,1000.56
2018-04-13T04:00:50.056Z,1000.59
2018-04-13T04:01:50.079Z,1000.63
2018-04-13T04:02:50.103Z,1000.63
2018-04-13T04:03:50.125Z,1000.77
2018-04-13T04:04:50.147Z,1000.69
2018-04-13T04:05:50.170Z,1000.71
2018-04-13T04:06:50.192Z,1000.75
2018-04-13T04:08:50.238Z,1000.76
2018-04-13T04:09:50.264Z,1000.75
2018-04-13T04:10:50.283Z,1000.77
2018-04-13T04:11:50.306Z,1000.76
2018-04-13T04:12:50.328Z,1000.82
2018-04-13T04:13:50.351Z,1000.81
2018-04-13T04:14:50.374Z,1000.87
2018-04-13T04:15:50.396Z,1000.8
2018-04-13T04:16:50.418Z,1000.8
2018-04-13T04:17:50.442Z,1000.8
2018-04-13T04:18:50.464Z,1000.78
2018-04-13T04:19:50.488Z,1000.74
2018-04-13T04:20:50.509Z,1000.75
2018-04-13T04:21:50.532Z,1000.81
2018-04-13T04:22:50.555Z,1000.83
2018-04-13T04:24:50.600Z,1000.79
2018-04-13T04:25:50.622Z,1000.83
2018-04-13T04:26:50.647Z,1000.87
2018-04-13T04:27:50.668Z,1000.82
2018-04-13T04:28:50.690Z,1000.85
2018-04-13T04:29:50.713Z,1000.9
2018-04-13T04:30:50.735Z,1000.84
2018-04-13T04:31:50.757Z,1000.88
2018-04-13T04:32:50.780Z,1000.86
2018-04-13T04:33:50.803Z,1000.86
2018-04-13T04:34:50.825Z,1000.89
2018-04-13T04:35:50.848Z,1000.89
2018-04-13T04:36:50.877Z,1000.91
2018-04-13T04:37:50.894Z,1000.91
2018-04-13T04:38:50.916Z,1000.9
2018-04-13T04:40:50.965Z,1000.92
2018-04-13T04:41:50.985Z,1000.97
2018-04-13T04:42:51.006Z,1001.05
2018-04-13T04:43:51.029Z,1001
2018-04-13T04:44:51.052Z,1000.97
2018-04-13T04:45:51.074Z,1000.97
2018-04-13T04:46:51.097Z,1001.01
2018-04-13T04:47:51.120Z,1000.97
2018-04-13T04:48:51.143Z,1001.01
2018-04-13T04:49:51.165Z,1000.97
2018-04-13T04:50:51.188Z,1001
2018-04-13T04:51:51.211Z,1001.01
2018-04-13T04:52:51.235Z,1000.98
2018-04-13T04:53:51.259Z,1000.97
2018-04-13T04:55:51.310Z,1000.95
2018-04-13T04:56:51.327Z,1001
2018-04-13T04:57:51.351Z,1001.03
2018-04-13T04:58:51.372Z,1001.02
2018-04-13T04:59:51.396Z,1000.99
2018-04-13T05:00:51.417Z,1001.06
2018-04-13T05:01:51.440Z,1001.12
2018-04-13T05:02:51.464Z,1001.04
2018-04-13T05:03:51.485Z,1001.13
2018-04-13T05:04:51.508Z,1001.16
2018-04-13T05:05:51.532Z,1001.14
2018-04-13T05:06:51.555Z,1001.16
2018-04-13T05:07:51.577Z,1001.18
2018-04-13T05:08:51.600Z,1001.24
2018-04-13T05:09:51.622Z,1001.34
2018-04-13T05:10:51.650Z,1001.34
2018-04-13T05:11:51.678Z,1001.29
2018-04-13T05:12:51.691Z,1001.32
2018-04-13T05:13:51.714Z,1001.33
2018-04-13T05:14:51.737Z,1001.24
2018-04-13T05:15:51.760Z,1001.28
2018-04-13T05:16:51.783Z,1001.36
2018-04-13T05:17:51.806Z,1001.42
2018-04-13T05:18:51.828Z,1001.33
2018-04-13T05:19:51.851Z,1001.43
2018-04-13T05:20:51.874Z,1001.4
2018-04-13T05:21:51.897Z,1001.44
2018-04-13T05:22:51.919Z,1001.47
2018-04-13T05:23:51.943Z,1001.43
2018-04-13T05:24:51.966Z,1001.38
2018-04-13T05:25:51.987Z,1001.4
2018-04-13T05:27:52.034Z,1001.44
2018-04-13T05:28:52.058Z,1001.43
2018-04-13T05:29:52.080Z,1001.45
2018-04-13T05:30:52.103Z,1001.43
2018-04-13T05:31:52.126Z,1001.39
2018-04-13T05:32:52.163Z,1001.4
2018-04-13T05:33:52.171Z,1001.42
2018-04-13T05:34:52.194Z,1001.37
2018-04-13T05:35:52.217Z,1001.38
2018-04-13T05:36:52.239Z,1001.38
2018-04-13T05:37:52.263Z,1001.41
2018-04-13T05:38:52.287Z,1001.35
2018-04-13T05:39:52.309Z,1001.37
2018-04-13T05:40:52.332Z,1001.34
2018-04-13T05:41:52.353Z,1001.39
2018-04-13T05:43:52.400Z,1001.34
2018-04-13T05:44:52.422Z,1001.37
2018-04-13T05:45:52.448Z,1001.39
2018-04-13T05:46:52.467Z,1001.41
2018-04-13T05:47:52.490Z,1001.41
2018-04-13T05:48:52.513Z,1001.39
2018-04-13T05:49:52.537Z,1001.43
2018-04-13T05:50:52.559Z,1001.4
2018-04-13T05:51:52.581Z,1001.37
2018-04-13T05:52:52.604Z,1001.38
2018-04-13T05:53:52.628Z,1001.29
2018-04-13T05:54:52.651Z,1001.25
2018-04-13T05:55:52.673Z,1001.33
2018-04-13T05:56:52.700Z,1001.33
2018-04-13T05:57:52.719Z,1001.39
2018-04-13T05:59:52.764Z,1001.37
2018-04-13T06:00:52.787Z,1001.43
2018-04-13T06:01:52.810Z,1001.4
2018-04-13T06:02:52.833Z,1001.4
2018-04-13T06:03:52.860Z,1001.3
2018-04-13T06:04:52.878Z,1001.38
2018-04-13T06:05:52.903Z,1001.44
2018-04-13T06:06:52.924Z,1001.37
2018-04-13T06:07:52.947Z,1001.37
2018-04-13T06:08:52.971Z,1001.34
2018-04-13T06:09:52.994Z,1001.34
2018-04-13T06:10:53.017Z,1001.38
2018-04-13T06:11:53.039Z,1001.36
2018-04-13T06:12:53.063Z,1001.35
2018-04-13T06:13:53.085Z,1001.32
2018-04-13T06:15:53.131Z,1001.31
2018-04-13T06:16:53.155Z,1001.33
2018-04-13T06:17:53.176Z,1001.32
2018-04-13T06:18:53.206Z,1001.34
2018-04-13T06:19:53.224Z,1001.35
2018-04-13T06:20:53.245Z,1001.29
2018-04-13T06:21:53.269Z,1001.26
2018-04-13T06:22:53.292Z,1001.32
2018-04-13T06:23:53.316Z,1001.37
2018-04-13T06:24:53.337Z,1001.52
2018-04-13T06:25:53.362Z,1001.53
2018-04-13T06:26:53.389Z,1001.58
2018-04-13T06:27:53.408Z,1001.5
2018-04-13T06:28:53.432Z,1001.58
2018-04-13T06:30:53.476Z,1001.68
2018-04-13T06:31:53.499Z,1001.66
2018-04-13T06:32:53.522Z,1001.74
2018-04-13T06:33:53.547Z,1001.7
2018-04-13T06:34:53.570Z,1001.75
2018-04-13T06:35:53.593Z,1001.82
2018-04-13T06:36:55.045Z,1001.82
2018-04-13T06:37:53.639Z,1001.79
2018-04-13T06:38:53.661Z,1001.81
2018-04-13T06:39:53.685Z,1001.81
2018-04-13T06:40:53.708Z,1001.84
2018-04-13T06:41:53.731Z,1001.89
2018-04-13T06:42:53.754Z,1001.89
2018-04-13T06:43:53.777Z,1001.9
2018-04-13T06:44:53.801Z,1001.86
2018-04-13T06:45:53.826Z,1002.07
2018-04-13T06:46:53.846Z,1002
2018-04-13T06:47:53.870Z,1002.09
2018-04-13T06:48:53.959Z,1002.27
2018-04-13T06:49:53.916Z,1002.25
2018-04-13T06:50:53.940Z,1002.35
2018-04-13T06:51:53.965Z,1002.45
2018-04-13T06:52:53.986Z,1002.47
2018-04-13T06:53:54.008Z,1002.44
2018-04-13T06:54:54.032Z,1002.46
2018-04-13T06:55:54.055Z,1002.47
2018-04-13T06:56:54.078Z,1002.48
2018-04-13T06:57:54.100Z,1002.46
2018-04-13T06:58:54.124Z,1002.5
2018-04-13T06:59:54.146Z,1002.51
2018-04-13T07:00:54.170Z,1002.51
2018-04-13T07:02:54.216Z,1002.54
2018-04-13T07:03:54.239Z,1002.48
2018-04-13T07:04:54.262Z,1002.55
2018-04-13T07:05:54.284Z,1002.5
2018-04-13T07:06:54.308Z,1002.56
2018-04-13T07:07:54.332Z,1002.51
2018-04-13T07:08:54.353Z,1002.54
2018-04-13T07:09:54.376Z,1002.43
2018-04-13T07:10:54.401Z,1002.47
2018-04-13T07:11:54.422Z,1002.52
2018-04-13T07:12:54.454Z,1002.58
2018-04-13T07:13:54.469Z,1002.61
2018-04-13T07:14:54.492Z,1002.56
2018-04-13T07:15:54.515Z,1002.57
2018-04-13T07:16:54.537Z,1002.54
2018-04-13T07:18:54.584Z,1002.58
2018-04-13T07:19:54.606Z,1002.56
2018-04-13T07:20:54.628Z,1002.53
2018-04-13T07:21:54.693Z,1002.53
2018-04-13T07:22:54.674Z,1002.47
2018-04-13T07:23:54.697Z,1002.45
2018-04-13T07:24:54.774Z,1002.42
2018-04-13T07:25:54.746Z,1002.44
2018-04-13T07:26:54.767Z,1002.43
2018-04-13T07:27:54.790Z,1002.42
2018-04-13T07:28:54.813Z,1002.44
2018-04-13T07:29:54.841Z,1002.5
2018-04-13T07:30:54.858Z,1002.48
2018-04-13T07:31:55.256Z,1002.54
2018-04-13T07:32:54.905Z,1002.57
2018-04-13T07:34:54.951Z,1002.69
2018-04-13T07:35:55.239Z,1002.69
2018-04-13T07:36:54.998Z,1002.71
2018-04-13T07:37:55.023Z,1002.72
2018-04-13T07:38:55.043Z,1002.77
2018-04-13T07:39:55.066Z,1002.78
2018-04-13T07:40:55.090Z,1002.78
2018-04-13T07:41:55.115Z,1002.8
2018-04-13T07:42:55.137Z,1002.84
2018-04-13T07:43:55.158Z,1002.92
2018-04-13T07:44:55.220Z,1002.99
2018-04-13T07:45:55.397Z,1002.99
2018-04-13T07:46:55.227Z,1002.97
2018-04-13T07:47:55.250Z,1003.01
2018-04-13T07:48:55.272Z,1002.97
2018-04-13T07:50:55.318Z,1003.02
2018-04-13T07:51:55.526Z,1003.11
2018-04-13T07:52:55.364Z,1003.25
2018-04-13T07:53:55.390Z,1003.25
2018-04-13T07:54:55.410Z,1003.23
2018-04-13T07:55:55.435Z,1003.16
2018-04-13T07:56:55.455Z,1003.03
2018-04-13T07:57:55.479Z,1002.94
2018-04-13T07:58:55.989Z,1003.04
2018-04-13T07:59:55.523Z,1003.08
2018-04-13T08:00:55.550Z,1003.1
2018-04-13T08:01:55.569Z,1003.09
2018-04-13T08:02:55.592Z,1003.08
2018-04-13T08:03:55.615Z,1003
2018-04-13T08:05:55.664Z,1002.98
2018-04-13T08:06:55.682Z,1002.95
2018-04-13T08:07:55.708Z,1002.93
2018-04-13T08:08:55.728Z,1002.98
2018-04-13T08:09:55.752Z,1002.94
2018-04-13T08:10:55.939Z,1002.96
2018-04-13T08:11:55.803Z,1002.94
2018-04-13T08:12:55.818Z,1002.92
2018-04-13T08:13:55.841Z,1002.9
2018-04-13T08:14:55.864Z,1002.84
2018-04-13T08:15:55.887Z,1002.77
2018-04-13T08:16:55.913Z,1002.69
2018-04-13T08:17:55.970Z,1002.67
2018-04-13T08:18:55.954Z,1002.56
2018-04-13T08:19:55.978Z,1002.5
2018-04-13T08:20:56.001Z,1002.44
2018-04-13T08:21:56.022Z,1002.47
2018-04-13T08:22:56.045Z,1002.43
2018-04-13T08:23:56.072Z,1002.41
2018-04-13T08:24:56.091Z,1002.35
2018-04-13T08:25:56.113Z,1002.33
2018-04-13T08:26:56.136Z,1002.29
2018-04-13T08:27:56.159Z,1002.28
2018-04-13T08:28:56.226Z,1002.25
2018-04-13T08:29:56.204Z,1002.23
2018-04-13T08:30:56.255Z,1002.3
2018-04-13T08:31:56.251Z,1002.3
2018-04-13T08:32:56.272Z,1002.34
2018-04-13T08:33:56.299Z,1002.32
2018-04-13T08:34:56.320Z,1002.38
2018-04-13T08:35:56.340Z,1002.47
2018-04-13T08:37:56.387Z,1002.36
2018-04-13T08:38:56.416Z,1002.39
2018-04-13T08:39:56.432Z,1002.41
2018-04-13T08:40:56.482Z,1002.4
2018-04-13T08:41:56.482Z,1002.42
2018-04-13T08:42:56.501Z,1002.35
2018-04-13T08:43:56.524Z,1002.34
2018-04-13T08:44:56.548Z,1002.3
2018-04-13T08:45:56.579Z,1002.28
2018-04-13T08:46:56.636Z,1002.29
2018-04-13T08:47:56.616Z,1002.26
2018-04-13T08:48:56.792Z,1002.19
2018-04-13T08:49:56.661Z,1002.18
2018-04-13T08:50:56.683Z,1002.1
2018-04-13T08:51:56.707Z,1002.05
2018-04-13T08:53:56.828Z,1001.98
2018-04-13T08:54:56.815Z,1001.96
2018-04-13T08:55:56.800Z,1001.98
2018-04-13T08:56:56.822Z,1001.97
2018-04-13T08:57:56.869Z,1002.02
2018-04-13T08:58:56.868Z,1002.04
2018-04-13T08:59:56.895Z,1002.05
2018-04-13T09:00:56.940Z,1002.09
2018-04-13T09:01:56.936Z,1002.14
2018-04-13T09:02:56.960Z,1002.22
2018-04-13T09:03:56.983Z,1002.19
2018-04-13T09:04:57.006Z,1002.21
2018-04-13T09:05:57.036Z,1002.27
2018-04-13T09:06:57.052Z,1002.25
2018-04-13T09:07:57.076Z,1002.25
2018-04-13T09:09:57.120Z,1002.16
2018-04-13T09:10:57.144Z,1002.18
2018-04-13T09:11:57.167Z,1002.14
2018-04-13T09:12:57.191Z,1002.12
2018-04-13T09:13:57.213Z,1002.16
2018-04-13T09:14:57.236Z,1002.27
2018-04-13T09:15:57.260Z,1002.2
2018-04-13T09:16:57.282Z,1002.36
2018-04-13T09:17:57.321Z,1002.33
2018-04-13T09:18:57.330Z,1002.37
2018-04-13T09:19:57.351Z,1002.34
2018-04-13T09:20:57.427Z,1002.34
2018-04-13T09:21:57.398Z,1002.4
2018-04-13T09:22:57.424Z,1002.41
2018-04-13T09:23:57.445Z,1002.41
2018-04-13T09:25:57.492Z,1002.44
2018-04-13T09:26:57.515Z,1002.37
2018-04-13T09:27:57.574Z,1002.44
2018-04-13T09:28:57.561Z,1002.51
2018-04-13T09:29:57.586Z,1002.5
2018-04-13T09:30:57.608Z,1002.63
2018-04-13T09:31:57.632Z,1002.55
2018-04-13T09:32:57.655Z,1002.57
2018-04-13T09:33:57.680Z,1002.56
2018-04-13T09:34:57.702Z,1002.57
2018-04-13T09:35:57.725Z,1002.59
2018-04-13T09:36:57.749Z,1002.57
2018-04-13T09:37:57.774Z,1002.53
2018-04-13T09:38:57.798Z,1002.58
2018-04-13T09:40:57.845Z,1002.66
2018-04-13T09:41:57.867Z,1002.62
2018-04-13T09:42:57.890Z,1002.65
2018-04-13T09:43:57.915Z,1002.65
2018-04-13T09:44:57.940Z,1002.71
2018-04-13T09:45:57.961Z,1002.68
2018-04-13T09:46:57.985Z,1002.68
2018-04-13T09:47:58.009Z,1002.71
2018-04-13T09:48:58.031Z,1002.7
2018-04-13T09:49:58.056Z,1002.65
2018-04-13T09:50:58.079Z,1002.64
2018-04-13T09:51:58.103Z,1002.69
2018-04-13T09:52:58.127Z,1002.73
2018-04-13T09:53:58.150Z,1002.72
2018-04-13T09:54:58.184Z,1002.79
2018-04-13T09:55:58.200Z,1002.84
2018-04-13T09:56:58.232Z,1002.77
2018-04-13T09:57:58.246Z,1002.78
2018-04-13T09:58:58.270Z,1002.8
2018-04-13T09:59:58.292Z,1002.84
2018-04-13T10:00:58.316Z,1002.87
2018-04-13T10:01:58.341Z,1002.87
2018-04-13T10:02:58.364Z,1002.85
2018-04-13T10:03:58.387Z,1002.83
2018-04-13T10:04:58.412Z,1002.76
2018-04-13T10:05:58.435Z,1002.86
2018-04-13T10:06:58.459Z,1002.9
2018-04-13T10:07:58.482Z,1002.88
2018-04-13T10:08:58.505Z,1002.91
2018-04-13T10:09:58.531Z,1002.92
2018-04-13T10:10:58.553Z,1002.87
2018-04-13T10:12:58.601Z,1002.77
2018-04-13T10:13:58.627Z,1002.73
2018-04-13T10:14:58.648Z,1002.75
2018-04-13T10:15:58.670Z,1002.77
2018-04-13T10:16:58.695Z,1002.72
2018-04-13T10:17:58.718Z,1002.79
2018-04-13T10:18:58.741Z,1002.73
2018-04-13T10:19:58.865Z,1002.71
2018-04-13T10:20:58.789Z,1002.67
2018-04-13T10:21:58.814Z,1002.65
2018-04-13T10:22:58.835Z,1002.59
2018-04-13T10:23:58.859Z,1002.6
2018-04-13T10:24:58.882Z,1002.61
2018-04-13T10:25:58.908Z,1002.63
2018-04-13T10:26:58.929Z,1002.64
2018-04-13T10:28:58.975Z,1002.71
2018-04-13T10:29:58.999Z,1002.81
2018-04-13T10:30:59.023Z,1002.77
2018-04-13T10:31:59.048Z,1002.76
2018-04-13T10:32:59.069Z,1002.8
2018-04-13T10:33:59.093Z,1002.89
2018-04-13T10:34:59.117Z,1002.97
2018-04-13T10:35:59.141Z,1003
2018-04-13T10:36:59.163Z,1003.04
2018-04-13T10:37:59.188Z,1003.02
2018-04-13T10:38:59.210Z,1003.03
2018-04-13T10:39:59.235Z,1003.03
2018-04-13T10:40:59.257Z,1002.95
2018-04-13T10:41:59.280Z,1002.9
2018-04-13T10:42:59.306Z,1002.84
2018-04-13T10:44:59.352Z,1002.86
2018-04-13T10:45:59.375Z,1002.83
2018-04-13T10:46:59.399Z,1002.86
2018-04-13T10:47:59.424Z,1002.88
2018-04-13T10:48:59.448Z,1002.86
2018-04-13T10:49:59.469Z,1002.93
2018-04-13T10:50:59.493Z,1002.92
2018-04-13T10:51:59.516Z,1002.95
2018-04-13T10:52:59.540Z,1002.92
2018-04-13T10:53:59.564Z,1003.01
2018-04-13T10:54:59.586Z,1003.12
2018-04-13T10:55:59.615Z,1003.13
2018-04-13T10:56:59.635Z,1003.05
2018-04-13T10:57:59.658Z,1003.1
2018-04-13T10:58:59.681Z,1003.13
2018-04-13T11:00:59.729Z,1003.29
2018-04-13T11:01:59.752Z,1003.32
2018-04-13T11:02:59.775Z,1003.3
2018-04-13T11:03:59.798Z,1003.28
2018-04-13T11:04:59.823Z,1003.27
2018-04-13T11:05:59.845Z,1003.2
2018-04-13T11:06:59.868Z,1003.17
2018-04-13T11:07:59.892Z,1003.14
2018-04-13T11:08:59.915Z,1003.15
2018-04-13T11:09:59.938Z,1003.1
2018-04-13T11:10:59.961Z,1003.1
2018-04-13T11:11:59.985Z,1003.11
2018-04-13T11:13:00.009Z,1003.05
2018-04-13T11:14:00.035Z,1003.07
2018-04-13T11:16:00.080Z,1003.03
2018-04-13T11:17:00.101Z,1003.01
2018-04-13T11:18:00.125Z,1003.06
2018-04-13T11:19:00.149Z,1002.95
2018-04-13T11:20:00.173Z,1002.96
2018-04-13T11:21:00.195Z,1002.87
2018-04-13T11:22:00.222Z,1002.85
2018-04-13T11:23:00.241Z,1002.94
2018-04-13T11:24:00.264Z,1002.91
2018-04-13T11:25:00.287Z,1002.88
2018-04-13T11:26:00.311Z,1002.91
2018-04-13T11:27:00.341Z,1002.84
2018-04-13T11:28:00.358Z,1002.91
2018-04-13T11:29:00.382Z,1002.87
2018-04-13T11:30:00.408Z,1002.85
2018-04-13T11:31:00.432Z,1002.8
2018-04-13T11:32:00.453Z,1002.84
2018-04-13T11:33:00.477Z,1002.79
2018-04-13T11:34:00.501Z,1002.73
2018-04-13T11:35:00.525Z,1002.76
2018-04-13T11:36:00.548Z,1002.77
2018-04-13T11:37:00.576Z,1002.77
2018-04-13T11:38:00.599Z,1002.71
2018-04-13T11:39:00.619Z,1002.76
2018-04-13T11:40:00.643Z,1002.65
2018-04-13T11:41:00.670Z,1002.62
2018-04-13T11:42:00.695Z,1002.62
2018-04-13T11:43:00.715Z,1002.63
2018-04-13T11:44:00.739Z,1002.54
2018-04-13T11:45:00.765Z,1002.53
2018-04-13T11:46:00.788Z,1002.57
2018-04-13T11:48:00.836Z,1002.62
2018-04-13T11:49:00.861Z,1002.56
2018-04-13T11:50:00.891Z,1002.58
2018-04-13T11:51:00.911Z,1002.61
2018-04-13T11:52:00.932Z,1002.59
2018-04-13T11:53:00.957Z,1002.6
2018-04-13T11:54:00.990Z,1002.62
2018-04-13T11:55:01.010Z,1002.65
2018-04-13T11:56:01.039Z,1002.62
2018-04-13T11:57:01.053Z,1002.63
2018-04-13T11:58:01.078Z,1002.63
2018-04-13T11:59:01.103Z,1002.63
2018-04-13T12:00:01.127Z,1002.66
2018-04-13T12:01:01.151Z,1002.52
2018-04-13T12:02:01.176Z,1002.63
2018-04-13T12:04:01.225Z,1002.68
2018-04-13T12:05:01.248Z,1002.53
2018-04-13T12:06:01.273Z,1002.55
2018-04-13T12:07:01.298Z,1002.52
2018-04-13T12:08:01.325Z,1002.52
2018-04-13T12:09:01.345Z,1002.56
2018-04-13T12:10:01.371Z,1002.51
2018-04-13T12:11:01.401Z,1002.53
2018-04-13T12:12:01.420Z,1002.57
2018-04-13T12:13:01.444Z,1002.58
2018-04-13T12:14:01.473Z,1002.55
2018-04-13T12:15:01.494Z,1002.57
2018-04-13T12:16:01.517Z,1002.54
2018-04-13T12:17:01.543Z,1002.59
2018-04-13T12:18:01.567Z,1002.56
2018-04-13T12:20:01.616Z,1002.56
2018-04-13T12:21:01.641Z,1002.55
2018-04-13T12:22:01.666Z,1002.51
2018-04-13T12:23:01.689Z,1002.51
2018-04-13T12:24:01.714Z,1002.48
2018-04-13T12:25:01.739Z,1002.53
2018-04-13T12:26:01.764Z,1002.44
2018-04-13T12:27:01.790Z,1002.4
2018-04-13T12:28:01.815Z,1002.41
2018-04-13T12:29:01.837Z,1002.39
2018-04-13T12:30:01.861Z,1002.36
2018-04-13T12:31:01.986Z,1002.26
2018-04-13T12:32:01.911Z,1002.24
2018-04-13T12:33:01.936Z,1002.19
2018-04-13T12:34:01.959Z,1002.26
2018-04-13T12:36:02.012Z,1002.21
2018-04-13T12:37:02.038Z,1002.15
2018-04-13T12:38:02.057Z,1002.26
2018-04-13T12:39:02.081Z,1002.21
2018-04-13T12:40:02.107Z,1002.23
2018-04-13T12:41:02.132Z,1002.28
2018-04-13T12:42:02.156Z,1002.3
2018-04-13T12:43:02.181Z,1002.34
2018-04-13T12:44:02.209Z,1002.32
2018-04-13T12:45:02.228Z,1002.29
2018-04-13T12:46:02.253Z,1002.3
2018-04-13T12:47:02.278Z,1002.36
2018-04-13T12:48:02.307Z,1002.33
2018-04-13T12:49:02.413Z,1002.33